sensor_id;sensor_type;location;lat;lon;timestamp;P1;durP1;ratioP1;P2;durP2;ratioP2
45692;SDS011;31402;44.752;-0.374;2022-12-07T00:03:35;12.27;;;8.63;;
45692;SDS011;31402;44.752;-0.374;2022-12-07T00:06:02;13.77;;;8.70;;
45692;SDS011;31402;44.752;-0.374;2022-12-07T00:08:29;14.10;;;9.00;;
45692;SDS011;31402;44.752;-0.374;2022-12-07T00:11:00;13.57;;;9.23;;
45692;SDS011;31402;44.752;-0.374;2022-12-07T00:13:27;14.00;;;8.80;;
45692;SDS011;31402;44.752;-0.374;2022-12-07T00:15:53;12.97;;;8.97;;
45692;SDS011;31402;44.752;-0.374;2022-12-07T00:18:18;15.43;;;9.27;;
45692;SDS011;31402;44.752;-0.374;2022-12-07T00:20:44;12.23;;;8.77;;
45692;SDS011;31402;44.752;-0.374;2022-12-07T00:23:10;14.83;;;9.33;;
45692;SDS011;31402;44.752;-0.374;2022-12-07T00:25:35;12.40;;;8.97;;
45692;SDS011;31402;44.752;-0.374;2022-12-07T00:28:01;12.23;;;9.10;;
45692;SDS011;31402;44.752;-0.374;2022-12-07T00:30:27;13.10;;;9.27;;
45692;SDS011;31402;44.752;-0.374;2022-12-07T00:32:53;13.33;;;9.47;;
45692;SDS011;31402;44.752;-0.374;2022-12-07T00:35:19;11.77;;;9.00;;
45692;SDS011;31402;44.752;-0.374;2022-12-07T00:37:44;13.97;;;9.60;;
45692;SDS011;31402;44.752;-0.374;2022-12-07T00:40:10;13.13;;;9.03;;
45692;SDS011;31402;44.752;-0.374;2022-12-07T00:42:36;14.03;;;9.33;;
45692;SDS011;31402;44.752;-0.374;2022-12-07T00:45:02;18.10;;;9.33;;
45692;SDS011;31402;44.752;-0.374;2022-12-07T00:47:28;15.13;;;9.40;;
45692;SDS011;31402;44.752;-0.374;2022-12-07T00:49:54;13.40;;;8.93;;
45692;SDS011;31402;44.752;-0.374;2022-12-07T00:52:19;13.60;;;9.03;;
45692;SDS011;31402;44.752;-0.374;2022-12-07T00:54:45;13.10;;;9.20;;
45692;SDS011;31402;44.752;-0.374;2022-12-07T00:57:11;13.70;;;9.37;;
45692;SDS011;31402;44.752;-0.374;2022-12-07T00:59:37;16.00;;;8.97;;
45692;SDS011;31402;44.752;-0.374;2022-12-07T01:02:02;12.20;;;8.73;;
45692;SDS011;31402;44.752;-0.374;2022-12-07T01:04:28;13.77;;;9.50;;
45692;SDS011;31402;44.752;-0.374;2022-12-07T01:06:54;17.30;;;9.77;;
45692;SDS011;31402;44.752;-0.374;2022-12-07T01:09:20;13.50;;;9.27;;
45692;SDS011;31402;44.752;-0.374;2022-12-07T01:11:46;13.67;;;9.13;;
45692;SDS011;31402;44.752;-0.374;2022-12-07T01:14:11;14.87;;;9.80;;
45692;SDS011;31402;44.752;-0.374;2022-12-07T01:16:38;15.80;;;9.40;;
45692;SDS011;31402;44.752;-0.374;2022-12-07T01:19:04;16.53;;;10.17;;
45692;SDS011;31402;44.752;-0.374;2022-12-07T01:21:33;15.87;;;9.60;;
45692;SDS011;31402;44.752;-0.374;2022-12-07T01:24:03;15.37;;;10.70;;
45692;SDS011;31402;44.752;-0.374;2022-12-07T01:26:29;17.07;;;10.40;;
45692;SDS011;31402;44.752;-0.374;2022-12-07T01:28:55;16.53;;;10.73;;
45692;SDS011;31402;44.752;-0.374;2022-12-07T01:31:24;15.37;;;9.83;;
45692;SDS011;31402;44.752;-0.374;2022-12-07T01:33:52;16.83;;;11.20;;
45692;SDS011;31402;44.752;-0.374;2022-12-07T01:36:21;19.43;;;11.97;;
45692;SDS011;31402;44.752;-0.374;2022-12-07T01:38:49;16.23;;;11.10;;
45692;SDS011;31402;44.752;-0.374;2022-12-07T01:41:17;17.10;;;11.90;;
45692;SDS011;31402;44.752;-0.374;2022-12-07T01:46:34;16.67;;;11.73;;
45692;SDS011;31402;44.752;-0.374;2022-12-07T01:49:00;20.93;;;13.33;;
45692;SDS011;31402;44.752;-0.374;2022-12-07T01:51:26;19.37;;;12.37;;
45692;SDS011;31402;44.752;-0.374;2022-12-07T01:53:53;19.10;;;12.13;;
45692;SDS011;31402;44.752;-0.374;2022-12-07T01:56:20;18.87;;;11.93;;
45692;SDS011;31402;44.752;-0.374;2022-12-07T01:58:51;18.03;;;11.70;;
45692;SDS011;31402;44.752;-0.374;2022-12-07T02:01:19;22.00;;;12.70;;
45692;SDS011;31402;44.752;-0.374;2022-12-07T02:03:46;19.97;;;13.07;;
45692;SDS011;31402;44.752;-0.374;2022-12-07T02:06:14;23.03;;;13.57;;
45692;SDS011;31402;44.752;-0.374;2022-12-07T02:08:44;20.00;;;13.13;;
45692;SDS011;31402;44.752;-0.374;2022-12-07T02:11:11;17.70;;;11.93;;
45692;SDS011;31402;44.752;-0.374;2022-12-07T02:13:38;19.70;;;11.13;;
45692;SDS011;31402;44.752;-0.374;2022-12-07T02:32:06;24.07;;;11.50;;
45692;SDS011;31402;44.752;-0.374;2022-12-07T02:34:48;42.10;;;11.90;;
45692;SDS011;31402;44.752;-0.374;2022-12-07T02:38:00;47.40;;;11.17;;
45692;SDS011;31402;44.752;-0.374;2022-12-07T02:43:16;68.33;;;11.10;;
45692;SDS011;31402;44.752;-0.374;2022-12-07T02:45:52;73.90;;;11.17;;
45692;SDS011;31402;44.752;-0.374;2022-12-07T02:48:21;59.20;;;10.83;;
45692;SDS011;31402;44.752;-0.374;2022-12-07T02:50:51;117.30;;;12.20;;
45692;SDS011;31402;44.752;-0.374;2022-12-07T02:56:26;88.20;;;12.27;;
45692;SDS011;31402;44.752;-0.374;2022-12-07T03:02:05;34.93;;;11.47;;
45692;SDS011;31402;44.752;-0.374;2022-12-07T03:07:59;91.67;;;11.83;;
45692;SDS011;31402;44.752;-0.374;2022-12-07T03:10:56;71.80;;;11.37;;
45692;SDS011;31402;44.752;-0.374;2022-12-07T03:18:58;36.40;;;11.40;;
45692;SDS011;31402;44.752;-0.374;2022-12-07T03:21:53;82.57;;;12.23;;
45692;SDS011;31402;44.752;-0.374;2022-12-07T03:24:29;74.97;;;12.70;;
45692;SDS011;31402;44.752;-0.374;2022-12-07T03:27:06;57.13;;;12.43;;
45692;SDS011;31402;44.752;-0.374;2022-12-07T03:30:18;92.20;;;12.50;;
45692;SDS011;31402;44.752;-0.374;2022-12-07T03:32:53;33.70;;;11.73;;
45692;SDS011;31402;44.752;-0.374;2022-12-07T03:35:38;28.53;;;11.87;;
45692;SDS011;31402;44.752;-0.374;2022-12-07T03:38:14;46.10;;;12.10;;
45692;SDS011;31402;44.752;-0.374;2022-12-07T03:40:55;76.27;;;12.90;;
45692;SDS011;31402;44.752;-0.374;2022-12-07T03:43:33;40.60;;;12.70;;
45692;SDS011;31402;44.752;-0.374;2022-12-07T03:46:10;74.37;;;12.67;;
45692;SDS011;31402;44.752;-0.374;2022-12-07T03:48:46;81.73;;;12.90;;
45692;SDS011;31402;44.752;-0.374;2022-12-07T03:51:38;71.23;;;13.17;;
45692;SDS011;31402;44.752;-0.374;2022-12-07T03:54:19;76.13;;;13.23;;
45692;SDS011;31402;44.752;-0.374;2022-12-07T03:56:45;37.63;;;12.63;;
45692;SDS011;31402;44.752;-0.374;2022-12-07T03:59:13;52.70;;;13.43;;
45692;SDS011;31402;44.752;-0.374;2022-12-07T04:01:44;72.73;;;12.83;;
45692;SDS011;31402;44.752;-0.374;2022-12-07T04:04:17;86.07;;;13.67;;
45692;SDS011;31402;44.752;-0.374;2022-12-07T04:06:43;72.67;;;13.40;;
45692;SDS011;31402;44.752;-0.374;2022-12-07T04:09:08;86.63;;;14.07;;
45692;SDS011;31402;44.752;-0.374;2022-12-07T04:11:34;50.33;;;14.10;;
45692;SDS011;31402;44.752;-0.374;2022-12-07T04:14:00;65.73;;;13.70;;
45692;SDS011;31402;44.752;-0.374;2022-12-07T04:16:47;36.07;;;13.80;;
45692;SDS011;31402;44.752;-0.374;2022-12-07T04:19:15;61.30;;;14.17;;
45692;SDS011;31402;44.752;-0.374;2022-12-07T04:21:42;47.00;;;13.93;;
45692;SDS011;31402;44.752;-0.374;2022-12-07T04:24:08;49.13;;;13.83;;
45692;SDS011;31402;44.752;-0.374;2022-12-07T04:26:34;41.87;;;13.20;;
45692;SDS011;31402;44.752;-0.374;2022-12-07T04:29:00;25.23;;;14.03;;
45692;SDS011;31402;44.752;-0.374;2022-12-07T04:31:26;34.43;;;13.77;;
45692;SDS011;31402;44.752;-0.374;2022-12-07T04:33:52;31.53;;;13.67;;
45692;SDS011;31402;44.752;-0.374;2022-12-07T04:36:18;42.53;;;13.87;;
45692;SDS011;31402;44.752;-0.374;2022-12-07T04:38:44;35.00;;;13.50;;
45692;SDS011;31402;44.752;-0.374;2022-12-07T04:41:10;31.20;;;13.27;;
45692;SDS011;31402;44.752;-0.374;2022-12-07T04:43:36;38.10;;;14.17;;
45692;SDS011;31402;44.752;-0.374;2022-12-07T04:46:02;29.30;;;13.40;;
45692;SDS011;31402;44.752;-0.374;2022-12-07T04:48:28;34.97;;;13.67;;
45692;SDS011;31402;44.752;-0.374;2022-12-07T04:50:54;28.43;;;14.20;;
45692;SDS011;31402;44.752;-0.374;2022-12-07T04:53:20;31.07;;;13.63;;
45692;SDS011;31402;44.752;-0.374;2022-12-07T04:55:46;39.17;;;12.93;;
45692;SDS011;31402;44.752;-0.374;2022-12-07T04:58:12;29.57;;;12.30;;
45692;SDS011;31402;44.752;-0.374;2022-12-07T05:00:39;29.60;;;12.10;;
45692;SDS011;31402;44.752;-0.374;2022-12-07T05:03:06;23.73;;;12.53;;
45692;SDS011;31402;44.752;-0.374;2022-12-07T05:05:32;31.53;;;12.77;;
45692;SDS011;31402;44.752;-0.374;2022-12-07T05:07:57;24.43;;;12.73;;
45692;SDS011;31402;44.752;-0.374;2022-12-07T05:10:23;70.73;;;14.03;;
45692;SDS011;31402;44.752;-0.374;2022-12-07T05:12:49;28.13;;;13.00;;
45692;SDS011;31402;44.752;-0.374;2022-12-07T05:15:15;41.57;;;13.27;;
45692;SDS011;31402;44.752;-0.374;2022-12-07T05:17:41;31.60;;;13.70;;
45692;SDS011;31402;44.752;-0.374;2022-12-07T05:20:07;45.50;;;13.90;;
45692;SDS011;31402;44.752;-0.374;2022-12-07T05:22:34;28.87;;;13.70;;
45692;SDS011;31402;44.752;-0.374;2022-12-07T05:25:00;26.60;;;13.67;;
45692;SDS011;31402;44.752;-0.374;2022-12-07T05:27:26;25.83;;;12.73;;
45692;SDS011;31402;44.752;-0.374;2022-12-07T05:29:52;25.20;;;14.00;;
45692;SDS011;31402;44.752;-0.374;2022-12-07T05:32:19;29.73;;;13.77;;
45692;SDS011;31402;44.752;-0.374;2022-12-07T05:34:45;21.47;;;12.73;;
45692;SDS011;31402;44.752;-0.374;2022-12-07T05:37:10;23.90;;;13.47;;
45692;SDS011;31402;44.752;-0.374;2022-12-07T05:39:36;21.93;;;12.97;;
45692;SDS011;31402;44.752;-0.374;2022-12-07T05:42:05;22.57;;;13.60;;
45692;SDS011;31402;44.752;-0.374;2022-12-07T05:44:37;25.03;;;14.20;;
45692;SDS011;31402;44.752;-0.374;2022-12-07T05:47:08;22.07;;;13.43;;
45692;SDS011;31402;44.752;-0.374;2022-12-07T05:49:34;21.97;;;13.00;;
45692;SDS011;31402;44.752;-0.374;2022-12-07T05:52:00;23.87;;;14.43;;
45692;SDS011;31402;44.752;-0.374;2022-12-07T05:54:26;23.07;;;13.33;;
45692;SDS011;31402;44.752;-0.374;2022-12-07T05:56:52;23.47;;;13.90;;
45692;SDS011;31402;44.752;-0.374;2022-12-07T05:59:18;25.40;;;14.00;;
45692;SDS011;31402;44.752;-0.374;2022-12-07T06:04:19;26.33;;;13.97;;
45692;SDS011;31402;44.752;-0.374;2022-12-07T06:06:46;24.90;;;13.50;;
45692;SDS011;31402;44.752;-0.374;2022-12-07T06:09:12;26.37;;;14.33;;
45692;SDS011;31402;44.752;-0.374;2022-12-07T06:11:38;25.90;;;14.83;;
45692;SDS011;31402;44.752;-0.374;2022-12-07T06:14:23;27.37;;;15.10;;
45692;SDS011;31402;44.752;-0.374;2022-12-07T06:16:49;26.07;;;15.20;;
45692;SDS011;31402;44.752;-0.374;2022-12-07T06:19:15;24.93;;;14.83;;
45692;SDS011;31402;44.752;-0.374;2022-12-07T06:21:41;25.20;;;14.37;;
45692;SDS011;31402;44.752;-0.374;2022-12-07T06:24:07;25.13;;;15.03;;
45692;SDS011;31402;44.752;-0.374;2022-12-07T06:26:36;25.50;;;14.13;;
45692;SDS011;31402;44.752;-0.374;2022-12-07T06:29:02;22.13;;;13.97;;
45692;SDS011;31402;44.752;-0.374;2022-12-07T06:31:28;21.27;;;12.63;;
45692;SDS011;31402;44.752;-0.374;2022-12-07T06:33:58;19.50;;;12.10;;
45692;SDS011;31402;44.752;-0.374;2022-12-07T06:36:24;19.53;;;12.30;;
45692;SDS011;31402;44.752;-0.374;2022-12-07T06:38:50;20.57;;;12.27;;
45692;SDS011;31402;44.752;-0.374;2022-12-07T06:41:15;18.47;;;11.30;;
45692;SDS011;31402;44.752;-0.374;2022-12-07T06:43:41;19.53;;;11.77;;
45692;SDS011;31402;44.752;-0.374;2022-12-07T06:46:07;18.17;;;11.37;;
45692;SDS011;31402;44.752;-0.374;2022-12-07T06:48:33;18.57;;;10.53;;
45692;SDS011;31402;44.752;-0.374;2022-12-07T06:50:59;19.27;;;10.73;;
45692;SDS011;31402;44.752;-0.374;2022-12-07T06:53:25;18.20;;;10.67;;
45692;SDS011;31402;44.752;-0.374;2022-12-07T06:55:50;19.60;;;11.27;;
45692;SDS011;31402;44.752;-0.374;2022-12-07T06:58:16;18.20;;;10.97;;
45692;SDS011;31402;44.752;-0.374;2022-12-07T07:00:43;16.93;;;10.90;;
45692;SDS011;31402;44.752;-0.374;2022-12-07T07:03:09;17.27;;;10.50;;
45692;SDS011;31402;44.752;-0.374;2022-12-07T07:05:35;18.90;;;11.90;;
45692;SDS011;31402;44.752;-0.374;2022-12-07T07:08:01;19.63;;;11.33;;
45692;SDS011;31402;44.752;-0.374;2022-12-07T07:10:27;18.27;;;11.50;;
45692;SDS011;31402;44.752;-0.374;2022-12-07T07:12:53;18.73;;;11.20;;
45692;SDS011;31402;44.752;-0.374;2022-12-07T07:15:19;19.80;;;11.93;;
45692;SDS011;31402;44.752;-0.374;2022-12-07T07:17:45;17.93;;;11.73;;
45692;SDS011;31402;44.752;-0.374;2022-12-07T07:20:11;19.37;;;11.40;;
45692;SDS011;31402;44.752;-0.374;2022-12-07T07:22:37;18.30;;;11.20;;
45692;SDS011;31402;44.752;-0.374;2022-12-07T07:25:02;19.93;;;11.70;;
45692;SDS011;31402;44.752;-0.374;2022-12-07T07:27:28;19.73;;;11.67;;
45692;SDS011;31402;44.752;-0.374;2022-12-07T07:29:54;19.10;;;11.77;;
45692;SDS011;31402;44.752;-0.374;2022-12-07T07:32:20;19.27;;;11.67;;
45692;SDS011;31402;44.752;-0.374;2022-12-07T07:34:47;17.53;;;11.37;;
45692;SDS011;31402;44.752;-0.374;2022-12-07T07:37:13;17.80;;;11.13;;
45692;SDS011;31402;44.752;-0.374;2022-12-07T07:39:39;19.30;;;11.33;;
45692;SDS011;31402;44.752;-0.374;2022-12-07T07:42:05;18.47;;;11.03;;
45692;SDS011;31402;44.752;-0.374;2022-12-07T07:44:32;16.73;;;10.80;;
45692;SDS011;31402;44.752;-0.374;2022-12-07T07:46:58;18.00;;;11.00;;
45692;SDS011;31402;44.752;-0.374;2022-12-07T07:49:25;17.77;;;11.20;;
45692;SDS011;31402;44.752;-0.374;2022-12-07T07:51:51;19.07;;;10.73;;
45692;SDS011;31402;44.752;-0.374;2022-12-07T07:54:16;15.30;;;9.87;;
45692;SDS011;31402;44.752;-0.374;2022-12-07T07:56:42;18.13;;;10.50;;
45692;SDS011;31402;44.752;-0.374;2022-12-07T07:59:08;16.70;;;10.10;;
45692;SDS011;31402;44.752;-0.374;2022-12-07T08:01:34;17.73;;;9.80;;
45692;SDS011;31402;44.752;-0.374;2022-12-07T08:04:00;17.53;;;10.37;;
45692;SDS011;31402;44.752;-0.374;2022-12-07T08:06:26;18.07;;;10.40;;
45692;SDS011;31402;44.752;-0.374;2022-12-07T08:08:52;16.60;;;9.47;;
45692;SDS011;31402;44.752;-0.374;2022-12-07T08:11:18;18.00;;;10.53;;
45692;SDS011;31402;44.752;-0.374;2022-12-07T08:13:46;19.37;;;10.97;;
45692;SDS011;31402;44.752;-0.374;2022-12-07T08:16:12;20.97;;;11.93;;
45692;SDS011;31402;44.752;-0.374;2022-12-07T08:18:40;20.40;;;11.93;;
45692;SDS011;31402;44.752;-0.374;2022-12-07T08:21:07;19.23;;;11.13;;
45692;SDS011;31402;44.752;-0.374;2022-12-07T08:23:35;18.43;;;10.57;;
45692;SDS011;31402;44.752;-0.374;2022-12-07T08:26:01;18.97;;;11.17;;
45692;SDS011;31402;44.752;-0.374;2022-12-07T08:28:28;17.67;;;10.37;;
45692;SDS011;31402;44.752;-0.374;2022-12-07T08:31:01;15.00;;;9.03;;
45692;SDS011;31402;44.752;-0.374;2022-12-07T08:33:32;15.23;;;9.37;;
45692;SDS011;31402;44.752;-0.374;2022-12-07T08:36:05;15.10;;;8.97;;
45692;SDS011;31402;44.752;-0.374;2022-12-07T08:38:33;13.90;;;8.80;;
45692;SDS011;31402;44.752;-0.374;2022-12-07T08:41:00;14.77;;;8.53;;
45692;SDS011;31402;44.752;-0.374;2022-12-07T08:43:25;13.93;;;8.37;;
45692;SDS011;31402;44.752;-0.374;2022-12-07T08:48:55;12.77;;;8.10;;
45692;SDS011;31402;44.752;-0.374;2022-12-07T08:51:24;15.07;;;8.43;;
45692;SDS011;31402;44.752;-0.374;2022-12-07T08:53:50;13.60;;;8.53;;
45692;SDS011;31402;44.752;-0.374;2022-12-07T08:56:17;13.27;;;8.17;;
45692;SDS011;31402;44.752;-0.374;2022-12-07T08:58:44;13.63;;;8.20;;
45692;SDS011;31402;44.752;-0.374;2022-12-07T09:01:10;14.10;;;8.83;;
45692;SDS011;31402;44.752;-0.374;2022-12-07T09:03:36;13.53;;;9.07;;
45692;SDS011;31402;44.752;-0.374;2022-12-07T09:06:02;15.93;;;8.80;;
45692;SDS011;31402;44.752;-0.374;2022-12-07T09:08:29;14.07;;;8.60;;
45692;SDS011;31402;44.752;-0.374;2022-12-07T09:11:04;14.30;;;8.90;;
45692;SDS011;31402;44.752;-0.374;2022-12-07T09:13:30;15.20;;;9.07;;
45692;SDS011;31402;44.752;-0.374;2022-12-07T09:15:56;14.37;;;8.97;;
45692;SDS011;31402;44.752;-0.374;2022-12-07T09:18:22;14.97;;;8.97;;
45692;SDS011;31402;44.752;-0.374;2022-12-07T09:20:49;13.93;;;9.07;;
45692;SDS011;31402;44.752;-0.374;2022-12-07T09:23:15;14.27;;;8.63;;
45692;SDS011;31402;44.752;-0.374;2022-12-07T09:25:40;14.63;;;9.13;;
45692;SDS011;31402;44.752;-0.374;2022-12-07T09:28:06;14.33;;;8.20;;
45692;SDS011;31402;44.752;-0.374;2022-12-07T09:30:32;14.43;;;9.43;;
45692;SDS011;31402;44.752;-0.374;2022-12-07T09:32:58;13.93;;;8.37;;
45692;SDS011;31402;44.752;-0.374;2022-12-07T09:35:24;14.73;;;8.17;;
45692;SDS011;31402;44.752;-0.374;2022-12-07T09:37:51;14.43;;;8.87;;
45692;SDS011;31402;44.752;-0.374;2022-12-07T09:40:17;15.17;;;9.30;;
45692;SDS011;31402;44.752;-0.374;2022-12-07T09:42:49;15.27;;;9.43;;
45692;SDS011;31402;44.752;-0.374;2022-12-07T09:45:26;13.37;;;8.80;;
45692;SDS011;31402;44.752;-0.374;2022-12-07T09:47:58;13.97;;;8.60;;
45692;SDS011;31402;44.752;-0.374;2022-12-07T09:50:26;14.27;;;9.03;;
45692;SDS011;31402;44.752;-0.374;2022-12-07T09:52:54;14.73;;;8.93;;
45692;SDS011;31402;44.752;-0.374;2022-12-07T09:55:31;14.80;;;9.17;;
45692;SDS011;31402;44.752;-0.374;2022-12-07T09:57:58;13.20;;;8.50;;
45692;SDS011;31402;44.752;-0.374;2022-12-07T10:00:24;14.63;;;8.80;;
45692;SDS011;31402;44.752;-0.374;2022-12-07T10:02:56;16.30;;;9.40;;
45692;SDS011;31402;44.752;-0.374;2022-12-07T10:07:57;13.93;;;8.40;;
45692;SDS011;31402;44.752;-0.374;2022-12-07T10:10:29;13.47;;;8.70;;
45692;SDS011;31402;44.752;-0.374;2022-12-07T10:12:58;14.33;;;9.27;;
45692;SDS011;31402;44.752;-0.374;2022-12-07T10:15:54;14.27;;;9.17;;
45692;SDS011;31402;44.752;-0.374;2022-12-07T10:18:37;12.97;;;8.40;;
45692;SDS011;31402;44.752;-0.374;2022-12-07T10:24:13;10.93;;;7.53;;
45692;SDS011;31402;44.752;-0.374;2022-12-07T10:34:37;11.63;;;7.80;;
45692;SDS011;31402;44.752;-0.374;2022-12-07T10:37:14;13.03;;;8.07;;
45692;SDS011;31402;44.752;-0.374;2022-12-07T10:39:44;10.53;;;7.13;;
45692;SDS011;31402;44.752;-0.374;2022-12-07T10:42:22;12.13;;;7.50;;
45692;SDS011;31402;44.752;-0.374;2022-12-07T10:44:48;11.37;;;7.43;;
45692;SDS011;31402;44.752;-0.374;2022-12-07T10:47:31;12.60;;;8.00;;
45692;SDS011;31402;44.752;-0.374;2022-12-07T10:55:22;10.63;;;7.27;;
45692;SDS011;31402;44.752;-0.374;2022-12-07T11:10:01;9.47;;;6.63;;
45692;SDS011;31402;44.752;-0.374;2022-12-07T11:20:29;11.47;;;7.20;;
45692;SDS011;31402;44.752;-0.374;2022-12-07T11:25:57;9.53;;;6.63;;
45692;SDS011;31402;44.752;-0.374;2022-12-07T11:28:35;10.47;;;7.30;;
45692;SDS011;31402;44.752;-0.374;2022-12-07T11:33:47;9.83;;;6.83;;
45692;SDS011;31402;44.752;-0.374;2022-12-07T11:39:39;10.27;;;6.30;;
45692;SDS011;31402;44.752;-0.374;2022-12-07T11:42:14;11.03;;;6.53;;
45692;SDS011;31402;44.752;-0.374;2022-12-07T11:44:49;10.97;;;6.73;;
45692;SDS011;31402;44.752;-0.374;2022-12-07T11:47:30;11.40;;;6.77;;
45692;SDS011;31402;44.752;-0.374;2022-12-07T11:50:24;10.83;;;6.77;;
45692;SDS011;31402;44.752;-0.374;2022-12-07T12:06:35;10.43;;;6.47;;
45692;SDS011;31402;44.752;-0.374;2022-12-07T12:09:12;9.73;;;6.43;;
45692;SDS011;31402;44.752;-0.374;2022-12-07T12:16:58;9.07;;;6.17;;
45692;SDS011;31402;44.752;-0.374;2022-12-07T12:20:00;9.90;;;6.00;;
45692;SDS011;31402;44.752;-0.374;2022-12-07T12:22:36;9.37;;;6.17;;
45692;SDS011;31402;44.752;-0.374;2022-12-07T12:28:20;8.40;;;5.57;;
45692;SDS011;31402;44.752;-0.374;2022-12-07T12:33:57;10.57;;;6.30;;
45692;SDS011;31402;44.752;-0.374;2022-12-07T12:46:46;8.50;;;5.90;;
45692;SDS011;31402;44.752;-0.374;2022-12-07T12:59:32;7.67;;;5.33;;
45692;SDS011;31402;44.752;-0.374;2022-12-07T13:05:00;6.70;;;5.10;;
45692;SDS011;31402;44.752;-0.374;2022-12-07T13:15:37;7.70;;;5.20;;
45692;SDS011;31402;44.752;-0.374;2022-12-07T13:20:56;7.33;;;4.90;;
45692;SDS011;31402;44.752;-0.374;2022-12-07T13:24:07;7.97;;;5.10;;
45692;SDS011;31402;44.752;-0.374;2022-12-07T13:31:45;7.77;;;5.27;;
45692;SDS011;31402;44.752;-0.374;2022-12-07T13:37:01;7.30;;;4.70;;
45692;SDS011;31402;44.752;-0.374;2022-12-07T13:39:35;7.60;;;5.00;;
45692;SDS011;31402;44.752;-0.374;2022-12-07T13:42:31;9.07;;;5.37;;
45692;SDS011;31402;44.752;-0.374;2022-12-07T13:45:00;7.40;;;5.17;;
45692;SDS011;31402;44.752;-0.374;2022-12-07T13:48:08;7.83;;;4.73;;
45692;SDS011;31402;44.752;-0.374;2022-12-07T13:50:41;8.07;;;4.90;;
45692;SDS011;31402;44.752;-0.374;2022-12-07T13:53:11;7.47;;;5.40;;
45692;SDS011;31402;44.752;-0.374;2022-12-07T13:55:43;8.77;;;5.00;;
45692;SDS011;31402;44.752;-0.374;2022-12-07T13:58:11;7.80;;;5.17;;
45692;SDS011;31402;44.752;-0.374;2022-12-07T14:00:37;7.80;;;5.20;;
45692;SDS011;31402;44.752;-0.374;2022-12-07T14:05:41;9.37;;;5.20;;
45692;SDS011;31402;44.752;-0.374;2022-12-07T14:10:39;7.63;;;5.50;;
45692;SDS011;31402;44.752;-0.374;2022-12-07T14:16:54;6.90;;;4.73;;
45692;SDS011;31402;44.752;-0.374;2022-12-07T14:19:02;6.53;;;4.63;;
45692;SDS011;31402;44.752;-0.374;2022-12-07T14:21:29;5.67;;;4.20;;
45692;SDS011;31402;44.752;-0.374;2022-12-07T14:24:04;7.30;;;4.30;;
45692;SDS011;31402;44.752;-0.374;2022-12-07T14:26:40;6.93;;;4.70;;
45692;SDS011;31402;44.752;-0.374;2022-12-07T14:31:51;7.10;;;4.77;;
45692;SDS011;31402;44.752;-0.374;2022-12-07T14:34:21;6.17;;;4.30;;
45692;SDS011;31402;44.752;-0.374;2022-12-07T14:36:48;7.83;;;4.70;;
45692;SDS011;31402;44.752;-0.374;2022-12-07T14:39:14;8.30;;;4.70;;
45692;SDS011;31402;44.752;-0.374;2022-12-07T14:41:40;6.50;;;4.70;;
45692;SDS011;31402;44.752;-0.374;2022-12-07T14:44:22;8.20;;;5.10;;
45692;SDS011;31402;44.752;-0.374;2022-12-07T14:46:48;7.10;;;5.03;;
45692;SDS011;31402;44.752;-0.374;2022-12-07T14:49:15;7.23;;;4.87;;
45692;SDS011;31402;44.752;-0.374;2022-12-07T14:51:41;7.83;;;5.03;;
45692;SDS011;31402;44.752;-0.374;2022-12-07T14:54:18;7.80;;;4.63;;
45692;SDS011;31402;44.752;-0.374;2022-12-07T14:56:45;7.07;;;4.70;;
45692;SDS011;31402;44.752;-0.374;2022-12-07T14:59:15;7.53;;;4.57;;
45692;SDS011;31402;44.752;-0.374;2022-12-07T15:01:41;6.40;;;4.60;;
45692;SDS011;31402;44.752;-0.374;2022-12-07T15:04:07;6.40;;;4.57;;
45692;SDS011;31402;44.752;-0.374;2022-12-07T15:06:32;7.13;;;4.40;;
45692;SDS011;31402;44.752;-0.374;2022-12-07T15:08:58;7.40;;;4.60;;
45692;SDS011;31402;44.752;-0.374;2022-12-07T15:11:24;7.13;;;4.40;;
45692;SDS011;31402;44.752;-0.374;2022-12-07T15:13:50;8.20;;;5.30;;
45692;SDS011;31402;44.752;-0.374;2022-12-07T15:16:35;6.97;;;4.70;;
45692;SDS011;31402;44.752;-0.374;2022-12-07T15:19:02;7.10;;;4.80;;
45692;SDS011;31402;44.752;-0.374;2022-12-07T15:21:28;6.80;;;4.73;;
45692;SDS011;31402;44.752;-0.374;2022-12-07T15:23:54;7.40;;;4.97;;
45692;SDS011;31402;44.752;-0.374;2022-12-07T15:26:20;9.10;;;5.27;;
45692;SDS011;31402;44.752;-0.374;2022-12-07T15:28:45;9.67;;;4.87;;
45692;SDS011;31402;44.752;-0.374;2022-12-07T15:31:15;8.60;;;5.10;;
45692;SDS011;31402;44.752;-0.374;2022-12-07T15:33:41;10.27;;;5.47;;
45692;SDS011;31402;44.752;-0.374;2022-12-07T15:36:08;8.57;;;5.10;;
45692;SDS011;31402;44.752;-0.374;2022-12-07T15:38:37;9.70;;;5.00;;
45692;SDS011;31402;44.752;-0.374;2022-12-07T15:41:03;7.90;;;4.83;;
45692;SDS011;31402;44.752;-0.374;2022-12-07T15:43:29;7.37;;;5.20;;
45692;SDS011;31402;44.752;-0.374;2022-12-07T15:46:13;7.53;;;5.17;;
45692;SDS011;31402;44.752;-0.374;2022-12-07T15:48:39;8.87;;;5.47;;
45692;SDS011;31402;44.752;-0.374;2022-12-07T15:51:05;10.03;;;5.50;;
45692;SDS011;31402;44.752;-0.374;2022-12-07T15:53:32;9.07;;;5.87;;
45692;SDS011;31402;44.752;-0.374;2022-12-07T15:55:59;8.27;;;5.23;;
45692;SDS011;31402;44.752;-0.374;2022-12-07T15:58:25;10.93;;;6.07;;
45692;SDS011;31402;44.752;-0.374;2022-12-07T16:00:51;11.37;;;6.17;;
45692;SDS011;31402;44.752;-0.374;2022-12-07T16:03:17;90.20;;;49.60;;
45692;SDS011;31402;44.752;-0.374;2022-12-07T16:05:52;18.37;;;10.87;;
45692;SDS011;31402;44.752;-0.374;2022-12-07T16:08:19;12.73;;;7.13;;
45692;SDS011;31402;44.752;-0.374;2022-12-07T16:10:45;13.40;;;6.80;;
45692;SDS011;31402;44.752;-0.374;2022-12-07T16:13:11;9.67;;;6.07;;
45692;SDS011;31402;44.752;-0.374;2022-12-07T16:15:39;10.73;;;6.67;;
45692;SDS011;31402;44.752;-0.374;2022-12-07T16:18:05;10.97;;;6.70;;
45692;SDS011;31402;44.752;-0.374;2022-12-07T16:20:30;11.33;;;6.83;;
45692;SDS011;31402;44.752;-0.374;2022-12-07T16:22:56;12.13;;;6.90;;
45692;SDS011;31402;44.752;-0.374;2022-12-07T16:25:22;17.23;;;7.20;;
45692;SDS011;31402;44.752;-0.374;2022-12-07T16:27:48;12.30;;;7.33;;
45692;SDS011;31402;44.752;-0.374;2022-12-07T16:30:15;17.17;;;8.23;;
45692;SDS011;31402;44.752;-0.374;2022-12-07T16:32:41;12.80;;;7.63;;
45692;SDS011;31402;44.752;-0.374;2022-12-07T16:35:07;13.17;;;8.27;;
45692;SDS011;31402;44.752;-0.374;2022-12-07T16:37:33;15.00;;;9.10;;
45692;SDS011;31402;44.752;-0.374;2022-12-07T16:39:59;13.60;;;8.17;;
45692;SDS011;31402;44.752;-0.374;2022-12-07T16:42:25;18.23;;;9.80;;
45692;SDS011;31402;44.752;-0.374;2022-12-07T16:44:51;19.80;;;9.30;;
45692;SDS011;31402;44.752;-0.374;2022-12-07T16:47:17;39.23;;;24.60;;
45692;SDS011;31402;44.752;-0.374;2022-12-07T16:49:43;20.23;;;12.57;;
45692;SDS011;31402;44.752;-0.374;2022-12-07T16:52:09;15.73;;;9.60;;
45692;SDS011;31402;44.752;-0.374;2022-12-07T16:54:35;12.70;;;8.00;;
45692;SDS011;31402;44.752;-0.374;2022-12-07T16:57:01;12.13;;;7.97;;
45692;SDS011;31402;44.752;-0.374;2022-12-07T16:59:27;11.93;;;6.93;;
45692;SDS011;31402;44.752;-0.374;2022-12-07T17:01:53;11.97;;;7.43;;
45692;SDS011;31402;44.752;-0.374;2022-12-07T17:04:18;16.03;;;8.87;;
45692;SDS011;31402;44.752;-0.374;2022-12-07T17:06:44;15.23;;;8.80;;
45692;SDS011;31402;44.752;-0.374;2022-12-07T17:09:10;12.90;;;8.80;;
45692;SDS011;31402;44.752;-0.374;2022-12-07T17:11:37;17.10;;;9.70;;
45692;SDS011;31402;44.752;-0.374;2022-12-07T17:14:03;13.87;;;8.60;;
45692;SDS011;31402;44.752;-0.374;2022-12-07T17:16:47;13.23;;;8.20;;
45692;SDS011;31402;44.752;-0.374;2022-12-07T17:19:14;16.73;;;8.83;;
45692;SDS011;31402;44.752;-0.374;2022-12-07T17:21:41;15.10;;;9.07;;